createdAt,value
2022-08-19T00:00:14.399Z,61.55
2022-08-19T00:01:14.387Z,62.52
2022-08-19T00:02:15.387Z,62.04
2022-08-19T00:03:14.363Z,62.20
2022-08-19T00:04:14.388Z,58.65
2022-08-19T00:05:14.349Z,57.52
2022-08-19T00:06:14.339Z,56.07
2022-08-19T00:07:14.329Z,62.20
2022-08-19T00:08:14.320Z,60.59
2022-08-19T00:09:14.325Z,58.49
2022-08-19T00:10:14.334Z,58.65
2022-08-19T00:11:18.753Z,60.75
2022-08-19T00:12:15.268Z,60.10
2022-08-19T00:13:14.269Z,62.04
2022-08-19T00:14:14.276Z,61.39
2022-08-19T00:15:14.251Z,59.94
2022-08-19T00:16:14.231Z,60.59
2022-08-19T00:17:14.240Z,60.59
2022-08-19T00:18:14.219Z,61.71
2022-08-19T00:19:14.224Z,58.97
2022-08-19T00:20:14.188Z,61.55
2022-08-19T00:21:14.192Z,60.26
2022-08-19T00:22:14.203Z,60.91
2022-08-19T00:23:14.177Z,60.91
2022-08-19T00:24:14.179Z,60.42
2022-08-19T00:25:14.149Z,58.81
2022-08-19T00:26:14.141Z,60.75
2022-08-19T00:27:25.643Z,58.17
2022-08-19T00:28:15.122Z,60.26
2022-08-19T00:29:14.133Z,60.91
2022-08-19T00:30:14.097Z,58.49
2022-08-19T00:31:14.096Z,58.65
2022-08-19T00:32:14.077Z,57.85
2022-08-19T00:33:14.073Z,63.65
2022-08-19T00:34:14.071Z,60.10
2022-08-19T00:35:14.050Z,60.91
2022-08-19T00:36:14.033Z,59.30
2022-08-19T00:37:14.030Z,57.04
2022-08-19T00:38:14.020Z,58.65
2022-08-19T00:39:14.030Z,58.97
2022-08-19T00:40:14.059Z,60.75
2022-08-19T00:41:13.990Z,59.30
2022-08-19T00:42:15.733Z,56.56
2022-08-19T00:43:14.970Z,59.14
2022-08-19T00:44:13.978Z,61.55
2022-08-19T00:45:13.954Z,58.49
2022-08-19T00:46:13.948Z,57.36
2022-08-19T00:47:14.364Z,58.65
2022-08-19T00:48:15.122Z,60.75
2022-08-19T00:49:13.921Z,60.42
2022-08-19T00:50:13.899Z,57.85
2022-08-19T00:51:13.887Z,59.46
2022-08-19T00:52:13.882Z,60.42
2022-08-19T00:53:13.866Z,61.55
2022-08-19T00:54:13.862Z,57.36
2022-08-19T00:55:13.852Z,58.01
2022-08-19T00:56:14.836Z,58.17
2022-08-19T00:57:13.839Z,57.52
2022-08-19T00:58:13.819Z,60.59
2022-08-19T00:59:13.817Z,59.30
2022-08-19T01:00:14.816Z,59.30
2022-08-19T01:01:13.804Z,58.97
2022-08-19T01:02:13.785Z,58.33
2022-08-19T01:03:13.772Z,60.42
2022-08-19T01:04:13.784Z,59.62
2022-08-19T01:05:13.773Z,62.20
2022-08-19T01:06:13.760Z,60.75
2022-08-19T01:07:15.861Z,59.14
2022-08-19T01:08:13.722Z,54.95
2022-08-19T01:09:13.713Z,60.75
2022-08-19T01:10:13.710Z,60.59
2022-08-19T01:11:13.679Z,61.39
2022-08-19T01:12:13.685Z,59.78
2022-08-19T01:13:13.674Z,58.17
2022-08-19T01:14:13.656Z,58.65
2022-08-19T01:15:13.656Z,62.84
2022-08-19T01:16:13.675Z,58.01
2022-08-19T01:17:13.633Z,59.46
2022-08-19T01:18:13.619Z,60.42
2022-08-19T01:19:13.611Z,58.17
2022-08-19T01:20:13.619Z,57.36
2022-08-19T01:21:13.605Z,61.07
2022-08-19T01:22:14.562Z,56.07
2022-08-19T01:23:13.574Z,56.40
2022-08-19T01:24:13.569Z,58.49
2022-08-19T01:25:14.773Z,64.29
2022-08-19T01:26:13.549Z,58.97
2022-08-19T01:27:13.536Z,58.01
2022-08-19T01:28:13.527Z,55.59
2022-08-19T01:29:13.519Z,58.17
2022-08-19T01:30:13.529Z,59.78
2022-08-19T01:31:27.265Z,58.33
2022-08-19T01:32:32.099Z,59.30
2022-08-19T01:33:14.474Z,57.36
2022-08-19T01:34:13.467Z,59.78
2022-08-19T01:35:13.475Z,57.52
2022-08-19T01:36:13.464Z,55.27
2022-08-19T01:37:13.436Z,58.81
2022-08-19T01:38:14.429Z,61.07
2022-08-19T01:39:13.422Z,58.33
2022-08-19T01:40:13.456Z,57.04
2022-08-19T01:41:13.404Z,57.52
2022-08-19T01:42:13.394Z,60.26
2022-08-19T01:43:13.373Z,60.10
2022-08-19T01:44:18.462Z,60.75
2022-08-19T01:45:14.374Z,60.10
2022-08-19T01:46:13.352Z,61.55
2022-08-19T01:47:13.348Z,57.85
2022-08-19T01:48:13.332Z,60.26
2022-08-19T01:49:13.318Z,62.20
2022-08-19T01:50:13.331Z,60.75
2022-08-19T01:51:13.297Z,58.97
2022-08-19T01:52:13.296Z,58.65
2022-08-19T01:53:13.292Z,59.30
2022-08-19T01:54:13.305Z,55.43
2022-08-19T01:55:13.282Z,52.37
2022-08-19T01:56:13.255Z,58.33
2022-08-19T01:57:13.234Z,58.81
2022-08-19T01:58:13.288Z,62.04
2022-08-19T01:59:13.219Z,56.24
2022-08-19T02:00:13.248Z,60.59
2022-08-19T02:01:13.239Z,58.65
2022-08-19T02:02:13.193Z,60.10
2022-08-19T02:03:13.173Z,60.10
2022-08-19T02:04:13.169Z,63.49
2022-08-19T02:05:13.173Z,61.55
2022-08-19T02:06:13.156Z,61.39
2022-08-19T02:07:13.167Z,60.59
2022-08-19T02:08:13.127Z,59.30
2022-08-19T02:09:13.121Z,59.94
2022-08-19T02:10:13.541Z,60.42
2022-08-19T02:11:13.099Z,58.97
2022-08-19T02:12:13.092Z,58.49
2022-08-19T02:13:13.088Z,58.49
2022-08-19T02:14:13.076Z,58.49
2022-08-19T02:15:13.084Z,61.87
2022-08-19T02:16:13.051Z,61.39
2022-08-19T02:17:13.052Z,60.10
2022-08-19T02:18:13.032Z,62.52
2022-08-19T02:19:13.035Z,63.00
2022-08-19T02:20:13.030Z,61.07
2022-08-19T02:21:13.062Z,62.36
2022-08-19T02:22:12.998Z,60.10
2022-08-19T02:23:13.857Z,62.84
2022-08-19T02:24:12.975Z,62.68
2022-08-19T02:25:13.008Z,59.30
2022-08-19T02:26:12.952Z,61.07
2022-08-19T02:27:12.937Z,58.81
2022-08-19T02:28:15.577Z,58.65
2022-08-19T02:29:14.946Z,59.94
2022-08-19T02:30:14.128Z,61.55
2022-08-19T02:31:12.902Z,59.30
2022-08-19T02:32:12.902Z,60.59
2022-08-19T02:33:12.888Z,62.68
2022-08-19T02:34:12.886Z,60.91
2022-08-19T02:35:12.880Z,60.91
2022-08-19T02:36:12.864Z,59.78
2022-08-19T02:37:12.846Z,60.26
2022-08-19T02:38:12.825Z,60.91
2022-08-19T02:39:12.822Z,60.75
2022-08-19T02:40:12.988Z,62.52
2022-08-19T02:41:12.802Z,57.52
2022-08-19T02:42:12.791Z,58.49
2022-08-19T02:43:12.781Z,59.78
2022-08-19T02:44:26.681Z,61.55
2022-08-19T02:45:13.780Z,57.04
2022-08-19T02:46:12.764Z,58.49
2022-08-19T02:47:12.738Z,59.94
2022-08-19T02:48:21.517Z,58.65
2022-08-19T02:49:13.725Z,59.78
2022-08-19T02:50:12.732Z,60.26
2022-08-19T02:51:12.692Z,57.69
2022-08-19T02:52:12.699Z,57.36
2022-08-19T02:53:12.674Z,57.85
2022-08-19T02:54:12.681Z,61.39
2022-08-19T02:55:12.679Z,57.20
2022-08-19T02:56:12.653Z,58.01
2022-08-19T02:57:12.642Z,59.94
2022-08-19T02:58:12.631Z,60.10
2022-08-19T02:59:13.090Z,57.69
2022-08-19T03:00:12.630Z,62.52
2022-08-19T03:01:12.646Z,58.17
2022-08-19T03:02:12.610Z,59.30
2022-08-19T03:03:12.576Z,61.07
2022-08-19T03:04:12.567Z,59.46
2022-08-19T03:05:12.586Z,60.26
2022-08-19T03:06:12.549Z,62.52
2022-08-19T03:07:12.556Z,58.33
2022-08-19T03:08:12.540Z,58.17
2022-08-19T03:09:12.533Z,60.91
2022-08-19T03:10:12.533Z,61.23
2022-08-19T03:11:12.508Z,61.55
2022-08-19T03:12:12.500Z,63.65
2022-08-19T03:13:12.504Z,63.16
2022-08-19T03:14:12.477Z,60.59
2022-08-19T03:15:12.491Z,61.07
2022-08-19T03:16:12.463Z,61.71
2022-08-19T03:17:12.455Z,60.91
2022-08-19T03:18:12.432Z,61.39
2022-08-19T03:19:12.440Z,61.39
2022-08-19T03:20:12.441Z,59.94
2022-08-19T03:21:12.593Z,59.94
2022-08-19T03:22:12.389Z,65.10
2022-08-19T03:23:12.400Z,62.20
2022-08-19T03:24:12.381Z,61.07
2022-08-19T03:25:12.412Z,63.49
2022-08-19T03:26:16.373Z,64.13
2022-08-19T03:27:12.354Z,63.16
2022-08-19T03:28:12.344Z,64.61
2022-08-19T03:29:13.250Z,66.23
2022-08-19T03:30:12.328Z,61.87
2022-08-19T03:31:42.099Z,62.68
2022-08-19T03:32:32.204Z,63.00
2022-08-19T03:33:17.986Z,63.33
2022-08-19T03:34:12.293Z,64.45
2022-08-19T03:35:12.293Z,64.78
2022-08-19T03:36:12.270Z,65.10
2022-08-19T03:37:12.263Z,63.16
2022-08-19T03:38:12.251Z,66.39
2022-08-19T03:39:12.244Z,63.97
2022-08-19T03:40:13.751Z,64.45
2022-08-19T03:41:12.219Z,64.61
2022-08-19T03:42:38.826Z,65.90
2022-08-19T03:43:13.194Z,63.97
2022-08-19T03:44:12.750Z,66.06
2022-08-19T03:45:13.193Z,63.33
2022-08-19T03:46:12.164Z,64.61
2022-08-19T03:47:12.176Z,64.94
2022-08-19T03:48:12.203Z,64.29
2022-08-19T03:49:14.434Z,64.78
2022-08-19T03:50:12.165Z,64.61
2022-08-19T03:51:12.115Z,66.06
2022-08-19T03:52:12.114Z,64.29
2022-08-19T03:53:12.096Z,66.87
2022-08-19T03:54:12.093Z,64.45
2022-08-19T03:55:12.100Z,64.61
2022-08-19T03:56:12.073Z,64.61
2022-08-19T03:57:12.059Z,65.26
2022-08-19T03:58:12.048Z,63.81
2022-08-19T03:59:12.037Z,63.00
2022-08-19T04:00:13.438Z,63.49
2022-08-19T04:01:12.034Z,66.23
2022-08-19T04:02:12.007Z,63.97
2022-08-19T04:03:12.012Z,65.42
2022-08-19T04:04:11.991Z,67.51
2022-08-19T04:05:12.001Z,64.61
2022-08-19T04:06:11.968Z,65.90
2022-08-19T04:07:11.963Z,65.90
2022-08-19T04:08:13.896Z,64.61
2022-08-19T04:09:12.937Z,64.94
2022-08-19T04:10:11.943Z,65.74
2022-08-19T04:11:11.915Z,64.45
2022-08-19T04:12:11.909Z,64.61
2022-08-19T04:13:11.901Z,63.97
2022-08-19T04:14:11.889Z,62.68
2022-08-19T04:15:11.908Z,62.68
2022-08-19T04:16:11.862Z,63.81
2022-08-19T04:17:11.865Z,64.61
2022-08-19T04:18:11.843Z,64.78
2022-08-19T04:19:11.837Z,63.49
2022-08-19T04:20:11.855Z,63.81
2022-08-19T04:21:11.821Z,64.61
2022-08-19T04:22:11.807Z,63.97
2022-08-19T04:23:11.800Z,63.16
2022-08-19T04:24:11.789Z,64.94
2022-08-19T04:25:11.775Z,64.78
2022-08-19T04:26:11.783Z,64.61
2022-08-19T04:27:11.756Z,65.10
2022-08-19T04:28:11.749Z,63.33
2022-08-19T04:29:12.703Z,65.74
2022-08-19T04:30:12.725Z,65.58
2022-08-19T04:31:11.734Z,66.39
2022-08-19T04:32:11.709Z,64.94
2022-08-19T04:33:11.698Z,64.78
2022-08-19T04:34:11.698Z,65.42
2022-08-19T04:35:17.452Z,66.06
2022-08-19T04:36:12.687Z,66.23
2022-08-19T04:37:11.657Z,65.10
2022-08-19T04:38:11.646Z,65.42
2022-08-19T04:39:11.632Z,64.61
2022-08-19T04:40:11.706Z,65.74
2022-08-19T04:41:11.629Z,66.71
2022-08-19T04:42:11.606Z,64.45
2022-08-19T04:43:11.602Z,66.23
2022-08-19T04:44:11.590Z,66.23
2022-08-19T04:45:12.393Z,66.06
2022-08-19T04:46:11.580Z,65.10
2022-08-19T04:47:12.560Z,65.10
2022-08-19T04:48:26.432Z,66.06
2022-08-19T04:49:13.665Z,67.51
2022-08-19T04:50:11.528Z,66.23
2022-08-19T04:51:11.534Z,63.65
2022-08-19T04:52:11.523Z,63.97
2022-08-19T04:53:11.502Z,65.26
2022-08-19T04:54:11.494Z,64.45
2022-08-19T04:55:11.487Z,66.06
2022-08-19T04:56:11.501Z,66.71
2022-08-19T04:57:11.606Z,66.23
2022-08-19T04:58:11.450Z,65.26
2022-08-19T04:59:11.445Z,64.94
2022-08-19T05:00:11.440Z,63.97
2022-08-19T05:01:11.498Z,66.39
2022-08-19T05:02:11.410Z,65.58
2022-08-19T05:03:11.402Z,62.36
2022-08-19T05:04:11.389Z,62.68
2022-08-19T05:05:11.386Z,63.33
2022-08-19T05:06:11.380Z,64.78
2022-08-19T05:07:11.367Z,64.78
2022-08-19T05:08:11.353Z,63.65
2022-08-19T05:09:11.336Z,64.29
2022-08-19T05:10:11.331Z,63.97
2022-08-19T05:11:11.349Z,65.10
2022-08-19T05:12:11.303Z,63.16
2022-08-19T05:13:12.301Z,63.00
2022-08-19T05:14:11.292Z,65.74
2022-08-19T05:15:11.280Z,64.13
2022-08-19T05:16:11.289Z,65.42
2022-08-19T05:17:27.031Z,62.84
2022-08-19T05:18:13.254Z,64.29
2022-08-19T05:19:11.239Z,65.74
2022-08-19T05:20:11.236Z,63.81
2022-08-19T05:21:11.239Z,62.68
2022-08-19T05:22:11.204Z,63.97
2022-08-19T05:23:20.646Z,63.33
2022-08-19T05:24:12.188Z,66.71
2022-08-19T05:25:13.484Z,65.26
2022-08-19T05:26:12.189Z,64.78
2022-08-19T05:27:11.160Z,62.04
2022-08-19T05:28:11.151Z,63.16
2022-08-19T05:29:11.138Z,63.65
2022-08-19T05:30:11.131Z,63.65
2022-08-19T05:31:11.128Z,66.06
2022-08-19T05:32:12.105Z,64.45
2022-08-19T05:33:11.098Z,65.58
2022-08-19T05:34:18.435Z,65.58
2022-08-19T05:35:12.087Z,66.23
2022-08-19T05:36:11.086Z,63.33
2022-08-19T05:37:11.058Z,63.16
2022-08-19T05:38:11.056Z,64.29
2022-08-19T05:39:11.039Z,63.65
2022-08-19T05:40:11.079Z,64.61
2022-08-19T05:41:11.037Z,65.74
2022-08-19T05:42:11.016Z,63.33
2022-08-19T05:43:10.999Z,65.58
2022-08-19T05:44:10.989Z,65.90
2022-08-19T05:45:10.980Z,65.90
2022-08-19T05:46:10.992Z,64.61
2022-08-19T05:47:10.955Z,64.78
2022-08-19T05:48:10.956Z,64.94
2022-08-19T05:49:10.941Z,62.84
2022-08-19T05:50:10.924Z,66.39
2022-08-19T05:51:10.938Z,64.78
2022-08-19T05:52:10.904Z,64.94
2022-08-19T05:53:10.905Z,66.71
2022-08-19T05:54:10.890Z,65.10
2022-08-19T05:55:10.881Z,63.81
2022-08-19T05:56:10.888Z,65.10
2022-08-19T05:57:11.753Z,64.94
2022-08-19T05:58:10.846Z,64.94
2022-08-19T05:59:10.846Z,64.94
2022-08-19T06:00:10.833Z,66.39
2022-08-19T06:01:10.847Z,63.49
2022-08-19T06:02:10.865Z,65.10
2022-08-19T06:03:12.951Z,63.33
2022-08-19T06:04:10.790Z,62.04
2022-08-19T06:05:10.789Z,62.84
2022-08-19T06:06:10.784Z,63.65
2022-08-19T06:07:12.759Z,65.26
2022-08-19T06:08:10.747Z,64.78
2022-08-19T06:09:10.738Z,63.97
2022-08-19T06:10:10.731Z,61.39
2022-08-19T06:11:10.739Z,64.61
2022-08-19T06:12:10.711Z,61.71
2022-08-19T06:13:10.709Z,63.33
2022-08-19T06:14:16.763Z,64.13
2022-08-19T06:15:11.685Z,65.10
2022-08-19T06:16:10.677Z,64.13
2022-08-19T06:17:10.676Z,64.61
2022-08-19T06:18:10.652Z,64.13
2022-08-19T06:19:10.646Z,66.39
2022-08-19T06:20:10.634Z,63.16
2022-08-19T06:21:10.643Z,61.71
2022-08-19T06:22:10.615Z,60.91
2022-08-19T06:23:10.605Z,62.36
2022-08-19T06:24:10.589Z,63.49
2022-08-19T06:25:10.584Z,62.36
2022-08-19T06:26:36.565Z,62.84
2022-08-19T06:27:10.556Z,61.55
2022-08-19T06:28:18.031Z,63.16
2022-08-19T06:29:23.786Z,62.84
2022-08-19T06:30:11.532Z,62.04
2022-08-19T06:31:10.544Z,60.59
2022-08-19T06:32:10.512Z,60.91
2022-08-19T06:33:11.503Z,61.71
2022-08-19T06:34:10.524Z,62.68
2022-08-19T06:35:10.480Z,65.10
2022-08-19T06:36:10.490Z,63.49
2022-08-19T06:37:10.473Z,63.97
2022-08-19T06:38:10.470Z,63.97
2022-08-19T06:39:10.445Z,64.13
2022-08-19T06:40:10.520Z,62.36
2022-08-19T06:41:10.448Z,61.71
2022-08-19T06:42:10.989Z,62.04
2022-08-19T06:43:10.406Z,62.20
2022-08-19T06:44:13.261Z,61.07
2022-08-19T06:45:10.388Z,63.65
2022-08-19T06:46:10.390Z,61.55
2022-08-19T06:47:14.945Z,61.55
2022-08-19T06:48:11.697Z,62.36
2022-08-19T06:49:10.343Z,63.65
2022-08-19T06:50:10.333Z,63.49
2022-08-19T06:51:10.338Z,63.00
2022-08-19T06:52:10.312Z,62.84
2022-08-19T06:53:10.293Z,63.97
2022-08-19T06:54:19.167Z,63.33
2022-08-19T06:55:11.271Z,63.16
2022-08-19T06:56:10.278Z,62.52
2022-08-19T06:57:10.257Z,59.62
2022-08-19T06:58:10.250Z,62.36
2022-08-19T06:59:10.230Z,63.00
2022-08-19T07:00:12.857Z,62.52
2022-08-19T07:01:11.236Z,61.71
2022-08-19T07:02:10.241Z,61.39
2022-08-19T07:03:12.975Z,61.87
2022-08-19T07:04:12.179Z,61.87
2022-08-19T07:05:10.181Z,62.36
2022-08-19T07:06:21.313Z,62.68
2022-08-19T07:07:19.769Z,62.36
2022-08-19T07:08:11.153Z,63.00
2022-08-19T07:09:10.140Z,64.29
2022-08-19T07:10:10.138Z,64.13
2022-08-19T07:11:10.794Z,61.71
2022-08-19T07:12:10.116Z,60.91
2022-08-19T07:13:10.100Z,61.55
2022-08-19T07:14:18.923Z,61.71
2022-08-19T07:15:10.231Z,64.61
2022-08-19T07:16:10.087Z,64.45
2022-08-19T07:17:10.062Z,63.16
2022-08-19T07:18:11.815Z,61.55
2022-08-19T07:19:16.027Z,65.10
2022-08-19T07:20:11.031Z,64.29
2022-08-19T07:21:10.045Z,63.00
2022-08-19T07:22:10.016Z,63.49
2022-08-19T07:23:10.001Z,64.45
2022-08-19T07:24:11.001Z,62.36
2022-08-19T07:25:09.991Z,62.52
2022-08-19T07:26:10.003Z,64.61
2022-08-19T07:27:15.063Z,64.78
2022-08-19T07:28:22.404Z,64.29
2022-08-19T07:29:10.946Z,61.71
2022-08-19T07:30:12.115Z,64.13
2022-08-19T07:31:09.944Z,63.00
2022-08-19T07:32:11.675Z,63.65
2022-08-19T07:33:09.912Z,65.58
2022-08-19T07:34:09.898Z,64.45
2022-08-19T07:35:09.944Z,66.39
2022-08-19T07:36:09.892Z,63.81
2022-08-19T07:37:09.876Z,65.74
2022-08-19T07:38:09.859Z,64.61
2022-08-19T07:39:09.847Z,64.45
2022-08-19T07:40:09.874Z,65.26
2022-08-19T07:41:09.843Z,64.13
2022-08-19T07:42:09.845Z,64.13
2022-08-19T07:43:13.903Z,64.94
2022-08-19T07:44:09.800Z,65.26
2022-08-19T07:45:09.794Z,64.78
2022-08-19T07:47:48.353Z,64.94
2022-08-19T07:48:10.768Z,66.06
2022-08-19T07:49:09.756Z,65.26
2022-08-19T07:50:09.745Z,65.58
2022-08-19T07:51:09.746Z,62.68
2022-08-19T07:52:09.722Z,62.36
2022-08-19T07:53:09.723Z,62.52
2022-08-19T07:54:09.705Z,63.81
2022-08-19T07:55:40.537Z,63.81
2022-08-19T07:56:10.704Z,63.81
2022-08-19T07:57:09.679Z,65.58
2022-08-19T07:58:09.669Z,64.13
2022-08-19T07:59:09.665Z,62.68
2022-08-19T08:00:09.645Z,62.68
2022-08-19T08:01:09.657Z,65.26
2022-08-19T08:02:09.709Z,63.81
2022-08-19T08:03:09.630Z,63.81
2022-08-19T08:04:09.620Z,64.94
2022-08-19T08:05:09.603Z,63.33
2022-08-19T08:06:09.611Z,62.84
2022-08-19T08:07:09.587Z,63.97
2022-08-19T08:08:09.574Z,64.13
2022-08-19T08:09:09.620Z,62.20
2022-08-19T08:10:21.028Z,62.52
2022-08-19T08:11:11.561Z,65.26
2022-08-19T08:12:33.180Z,64.45
2022-08-19T08:13:11.615Z,63.65
2022-08-19T08:14:09.515Z,64.61
2022-08-19T08:15:12.773Z,63.97
2022-08-19T08:16:10.277Z,64.13
2022-08-19T08:17:10.776Z,61.71
2022-08-19T08:18:09.489Z,65.26
2022-08-19T08:19:20.430Z,63.81
2022-08-19T08:20:10.458Z,62.36
2022-08-19T08:21:09.468Z,62.68
2022-08-19T08:22:09.435Z,62.52
2022-08-19T08:23:09.428Z,63.49
2022-08-19T08:24:09.434Z,64.29
2022-08-19T08:25:09.403Z,63.81
2022-08-19T08:26:09.420Z,62.84
2022-08-19T08:27:11.119Z,64.78
2022-08-19T08:28:09.388Z,63.81
2022-08-19T08:29:12.489Z,64.78
2022-08-19T08:30:09.361Z,63.65
2022-08-19T08:31:09.884Z,65.58
2022-08-19T08:32:14.169Z,65.58
2022-08-19T08:33:10.392Z,63.65
2022-08-19T08:34:09.327Z,63.33
2022-08-19T08:35:09.312Z,64.94
2022-08-19T08:36:09.333Z,64.94
2022-08-19T08:37:09.290Z,65.42
2022-08-19T08:38:09.295Z,64.45
2022-08-19T08:39:09.279Z,62.36
2022-08-19T08:40:13.040Z,62.84
2022-08-19T08:41:10.261Z,62.04
2022-08-19T08:42:10.330Z,62.52
2022-08-19T08:43:11.287Z,62.36
2022-08-19T08:44:09.230Z,60.91
2022-08-19T08:45:10.214Z,62.36
2022-08-19T08:46:09.222Z,63.65
2022-08-19T08:47:09.180Z,63.65
2022-08-19T08:48:22.247Z,63.81
2022-08-19T08:49:10.172Z,63.33
2022-08-19T08:50:09.190Z,64.61
2022-08-19T08:51:09.231Z,63.33
2022-08-19T08:52:09.147Z,64.45
2022-08-19T08:53:09.132Z,64.45
2022-08-19T08:54:09.914Z,64.61
2022-08-19T08:55:10.279Z,64.94
2022-08-19T08:56:09.110Z,65.42
2022-08-19T08:57:09.081Z,63.49
2022-08-19T08:58:09.081Z,65.42
2022-08-19T08:59:09.057Z,65.58
2022-08-19T09:00:15.348Z,63.65
2022-08-19T09:01:10.102Z,64.45
2022-08-19T09:02:09.029Z,65.74
2022-08-19T09:03:09.014Z,65.10
2022-08-19T09:04:09.040Z,64.13
2022-08-19T09:05:09.004Z,65.26
2022-08-19T09:06:12.044Z,66.23
2022-08-19T09:07:26.180Z,65.42
2022-08-19T09:08:09.982Z,65.26
2022-08-19T09:09:12.284Z,64.61
2022-08-19T09:10:08.954Z,66.23
2022-08-19T09:11:08.964Z,66.06
2022-08-19T09:12:08.940Z,65.10
2022-08-19T09:13:09.462Z,64.45
2022-08-19T09:14:19.164Z,64.13
2022-08-19T09:15:09.932Z,65.26
2022-08-19T09:16:08.901Z,63.33
2022-08-19T09:17:08.888Z,65.74
2022-08-19T09:18:08.872Z,63.49
2022-08-19T09:19:08.853Z,63.49
2022-08-19T09:20:09.137Z,64.61
2022-08-19T09:21:08.866Z,65.10
2022-08-19T09:22:08.836Z,64.61
2022-08-19T09:23:08.830Z,63.81
2022-08-19T09:24:08.818Z,64.45
2022-08-19T09:25:08.841Z,64.94
2022-08-19T09:26:08.806Z,62.36
2022-08-19T09:27:18.436Z,64.61
2022-08-19T09:28:21.332Z,64.61
2022-08-19T09:29:09.771Z,63.81
2022-08-19T09:30:08.755Z,66.39
2022-08-19T09:31:08.766Z,65.10
2022-08-19T09:32:26.261Z,63.97
2022-08-19T09:33:09.728Z,64.13
2022-08-19T09:34:08.722Z,65.42
2022-08-19T09:35:09.734Z,64.94
2022-08-19T09:36:08.867Z,63.65
2022-08-19T09:37:08.700Z,63.65
2022-08-19T09:38:08.677Z,65.58
2022-08-19T09:39:14.869Z,63.65
2022-08-19T09:40:09.683Z,63.16
2022-08-19T09:41:08.662Z,63.16
2022-08-19T09:42:16.499Z,63.00
2022-08-19T09:43:09.983Z,64.45
2022-08-19T09:44:08.620Z,65.42
2022-08-19T09:45:10.242Z,64.78
2022-08-19T09:46:08.617Z,62.68
2022-08-19T09:47:08.590Z,63.49
2022-08-19T09:48:09.394Z,63.16
2022-08-19T09:49:08.566Z,63.00
2022-08-19T09:50:08.565Z,63.65
2022-08-19T09:51:08.573Z,62.36
2022-08-19T09:52:08.547Z,61.55
2022-08-19T09:53:08.532Z,62.04
2022-08-19T09:54:11.304Z,63.49
2022-08-19T09:55:08.508Z,62.68
2022-08-19T09:56:09.404Z,62.52
2022-08-19T09:57:08.490Z,62.68
2022-08-19T09:58:08.483Z,61.07
2022-08-19T09:59:08.471Z,62.52
2022-08-19T10:00:08.463Z,64.13
2022-08-19T10:01:08.502Z,63.16
2022-08-19T10:02:10.842Z,63.00
2022-08-19T10:03:08.635Z,63.33
2022-08-19T10:04:14.672Z,63.00
2022-08-19T10:05:10.411Z,62.84
2022-08-19T10:06:14.920Z,62.04
2022-08-19T10:07:09.400Z,61.87
2022-08-19T10:08:13.478Z,64.78
2022-08-19T10:09:09.004Z,62.84
2022-08-19T10:10:08.370Z,63.49
2022-08-19T10:11:27.764Z,65.26
2022-08-19T10:12:11.125Z,63.65
2022-08-19T10:13:08.333Z,63.65
2022-08-19T10:14:08.332Z,62.36
2022-08-19T10:15:08.323Z,63.16
2022-08-19T10:16:08.324Z,64.13
2022-08-19T10:17:19.988Z,64.13
2022-08-19T10:18:09.294Z,64.78
2022-08-19T10:19:08.280Z,63.65
2022-08-19T10:20:08.272Z,62.36
2022-08-19T10:21:08.279Z,63.49
2022-08-19T10:22:10.066Z,62.68
2022-08-19T10:23:08.243Z,61.39
2022-08-19T10:24:09.482Z,60.59
2022-08-19T10:25:08.228Z,62.04
2022-08-19T10:26:08.238Z,62.04
2022-08-19T10:27:08.906Z,62.36
2022-08-19T10:28:10.786Z,61.71
2022-08-19T10:29:09.223Z,63.00
2022-08-19T10:30:10.082Z,62.52
2022-08-19T10:31:08.176Z,61.71
2022-08-19T10:32:09.444Z,61.87
2022-08-19T10:33:10.958Z,61.71
2022-08-19T10:34:10.001Z,62.84
2022-08-19T10:35:08.125Z,61.07
2022-08-19T10:36:08.131Z,60.59
2022-08-19T10:37:10.796Z,60.42
2022-08-19T10:38:09.115Z,61.23
2022-08-19T10:39:08.092Z,61.39
2022-08-19T10:40:08.113Z,61.07
2022-08-19T10:41:08.085Z,63.00
2022-08-19T10:42:08.065Z,62.36
2022-08-19T10:43:08.050Z,63.00
2022-08-19T10:44:08.048Z,61.71
2022-08-19T10:45:08.030Z,61.39
2022-08-19T10:46:09.551Z,62.04
2022-08-19T10:47:17.336Z,61.87
2022-08-19T10:48:09.032Z,60.91
2022-08-19T10:49:07.995Z,60.10
2022-08-19T10:50:07.986Z,61.87
2022-08-19T10:51:08.046Z,62.36
2022-08-19T10:52:07.964Z,62.04
2022-08-19T10:53:09.685Z,59.62
2022-08-19T10:54:07.946Z,60.26
2022-08-19T10:55:08.380Z,61.55
2022-08-19T10:56:07.941Z,60.59
2022-08-19T10:57:07.914Z,59.78
2022-08-19T10:58:08.146Z,60.42
2022-08-19T10:59:07.896Z,60.26
2022-08-19T11:00:07.889Z,59.94
2022-08-19T11:01:07.925Z,60.91
2022-08-19T11:02:07.887Z,61.07
2022-08-19T11:03:07.863Z,60.59
2022-08-19T11:04:07.844Z,60.59
2022-08-19T11:05:12.365Z,60.42
2022-08-19T11:06:08.834Z,60.59
2022-08-19T11:07:07.816Z,60.75
2022-08-19T11:08:23.237Z,60.75
2022-08-19T11:09:08.789Z,61.07
2022-08-19T11:10:12.736Z,60.75
2022-08-19T11:11:08.792Z,61.39
2022-08-19T11:12:07.770Z,60.59
2022-08-19T11:13:07.758Z,61.07
2022-08-19T11:14:07.749Z,61.07
2022-08-19T11:15:07.735Z,59.78
2022-08-19T11:16:08.128Z,60.10
2022-08-19T11:17:07.722Z,60.10
2022-08-19T11:18:07.714Z,61.55
2022-08-19T11:19:08.701Z,61.39
2022-08-19T11:20:07.690Z,61.71
2022-08-19T11:21:07.708Z,60.26
2022-08-19T11:22:07.679Z,60.59
2022-08-19T11:23:07.660Z,60.75
2022-08-19T11:24:07.660Z,60.26
2022-08-19T11:25:07.649Z,60.91
2022-08-19T11:26:07.651Z,61.23
2022-08-19T11:27:07.628Z,61.39
2022-08-19T11:28:07.668Z,60.59
2022-08-19T11:29:07.604Z,60.59
2022-08-19T11:30:07.957Z,61.07
2022-08-19T11:31:07.618Z,61.39
2022-08-19T11:32:07.578Z,60.42
2022-08-19T11:33:07.552Z,60.10
2022-08-19T11:34:07.561Z,60.26
2022-08-19T11:35:07.550Z,60.42
2022-08-19T11:36:07.551Z,60.75
2022-08-19T11:37:07.532Z,59.94
2022-08-19T11:38:09.879Z,60.10
2022-08-19T11:39:08.509Z,60.75
2022-08-19T11:40:07.577Z,61.07
2022-08-19T11:41:07.497Z,61.39
2022-08-19T11:42:07.481Z,60.75
2022-08-19T11:43:07.483Z,59.46
2022-08-19T11:44:07.458Z,59.62
2022-08-19T11:45:07.447Z,58.97
2022-08-19T11:46:07.464Z,59.78
2022-08-19T11:47:08.903Z,58.97
2022-08-19T11:48:07.416Z,60.59
2022-08-19T11:49:10.730Z,59.62
2022-08-19T11:50:08.401Z,59.94
2022-08-19T11:51:07.410Z,61.71
2022-08-19T11:52:07.391Z,62.20
2022-08-19T11:53:07.373Z,62.36
2022-08-19T11:54:07.368Z,60.26
2022-08-19T11:55:07.351Z,59.78
2022-08-19T11:56:07.367Z,61.07
2022-08-19T11:57:07.337Z,59.94
2022-08-19T11:58:07.327Z,59.46
2022-08-19T11:59:12.795Z,60.10
2022-08-19T12:00:08.308Z,59.62
2022-08-19T12:01:07.315Z,58.81
2022-08-19T12:02:07.290Z,59.14
2022-08-19T12:03:07.279Z,58.49
2022-08-19T12:04:07.323Z,59.14
2022-08-19T12:05:12.011Z,58.81
2022-08-19T12:06:08.269Z,58.65
2022-08-19T12:07:07.242Z,59.62
2022-08-19T12:08:07.232Z,58.97
2022-08-19T12:09:07.224Z,60.10
2022-08-19T12:10:07.230Z,60.42
2022-08-19T12:11:07.270Z,60.10
2022-08-19T12:12:07.215Z,60.91
2022-08-19T12:13:07.181Z,60.26
2022-08-19T12:14:07.180Z,60.26
2022-08-19T12:15:07.193Z,60.26
2022-08-19T12:16:07.152Z,61.55
2022-08-19T12:17:07.174Z,60.42
2022-08-19T12:18:07.136Z,60.59
2022-08-19T12:19:08.129Z,59.94
2022-08-19T12:20:07.117Z,59.78
2022-08-19T12:21:07.125Z,60.10
2022-08-19T12:22:07.102Z,61.07
2022-08-19T12:23:07.089Z,62.04
2022-08-19T12:24:07.071Z,61.23
2022-08-19T12:25:07.103Z,61.23
2022-08-19T12:26:07.077Z,61.07
2022-08-19T12:27:07.171Z,62.52
2022-08-19T12:28:07.041Z,63.49
2022-08-19T12:29:07.029Z,61.07
2022-08-19T12:30:07.027Z,61.39
2022-08-19T12:31:07.029Z,61.39
2022-08-19T12:32:07.010Z,63.49
2022-08-19T12:33:06.993Z,61.55
2022-08-19T12:34:06.980Z,62.04
2022-08-19T12:35:07.020Z,62.84
2022-08-19T12:36:06.986Z,61.87
2022-08-19T12:37:06.957Z,61.39
2022-08-19T12:38:06.971Z,60.75
2022-08-19T12:39:06.939Z,62.36
2022-08-19T12:40:06.961Z,62.84
2022-08-19T12:41:06.930Z,61.39
2022-08-19T12:42:07.912Z,61.71
2022-08-19T12:43:06.903Z,61.71
2022-08-19T12:44:06.899Z,62.68
2022-08-19T12:45:06.984Z,63.16
2022-08-19T12:46:06.894Z,63.16
2022-08-19T12:47:06.908Z,64.13
2022-08-19T12:48:34.751Z,62.52
2022-08-19T12:49:24.523Z,61.23
2022-08-19T12:50:07.829Z,63.16
2022-08-19T12:51:07.828Z,63.16
2022-08-19T12:52:06.807Z,61.23
2022-08-19T12:53:06.805Z,64.13